Time;durP1;ratioP1;P1;durP2;ratioP2;P2;SDS_P1;SDS_P2;PMS_P1;PMS_P2;Temp;Humidity;BMP_temperature;BMP_pressure;BME280_temperature;BME280_humidity;BME280_pressure;Samples;Min_cycle;Max_cycle;Signal;HPM_P1;HPM_P2
2022/06/06 00:00:01;;;;;;;3.78;3.33;;;12.90;99.90;;;;;;4986143;28;20054;-69
2022/06/06 00:02:38;;;;;;;3.95;3.63;;;12.90;99.90;;;;;;4984506;28;20149;-67
2022/06/06 00:05:06;;;;;;;3.65;3.35;;;12.90;99.90;;;;;;4985358;28;20056;-68
2022/06/06 00:07:33;;;;;;;4.22;3.83;;;12.90;99.90;;;;;;4982727;28;20144;-68
2022/06/06 00:10:00;;;;;;;5.10;4.60;;;12.90;99.90;;;;;;4960249;28;20128;-67
2022/06/06 00:12:27;;;;;;;5.20;4.57;;;12.90;99.90;;;;;;4981818;28;20216;-69
2022/06/06 00:14:54;;;;;;;4.63;4.20;;;13.00;99.90;;;;;;4981911;28;20556;-69
2022/06/06 00:17:21;;;;;;;6.63;4.43;;;12.90;99.90;;;;;;4967469;28;20424;-68
2022/06/06 00:19:48;;;;;;;4.65;4.25;;;12.90;99.90;;;;;;4985027;28;20048;-67
2022/06/06 00:22:16;;;;;;;6.00;5.32;;;12.90;99.90;;;;;;4982419;28;20053;-72
2022/06/06 00:24:43;;;;;;;6.20;4.70;;;12.80;99.90;;;;;;4977742;28;20172;-66
2022/06/06 00:27:10;;;;;;;9.85;5.13;;;12.90;99.90;;;;;;4983909;28;20057;-69
2022/06/06 00:29:37;;;;;;;5.15;4.65;;;12.90;99.90;;;;;;4961229;28;20073;-67
2022/06/06 00:34:54;;;;;;;5.75;5.25;;;12.90;99.90;;;;;;4976560;28;20053;-71
2022/06/06 00:37:30;;;;;;;8.98;7.85;;;12.80;99.90;;;;;;4980782;28;20499;-67
2022/06/06 00:39:57;;;;;;;7.63;6.05;;;12.80;99.90;;;;;;4981994;28;20056;-69
2022/06/06 00:42:33;;;;;;;6.68;5.50;;;12.80;99.90;;;;;;4981840;28;20085;-67
2022/06/06 00:45:34;;;;;;;5.80;5.15;;;12.80;99.90;;;;;;4982992;28;20197;-69
2022/06/06 00:48:23;;;;;;;7.55;6.75;;;12.70;99.90;;;;;;4954299;28;20120;-66
2022/06/06 00:51:01;;;;;;;6.43;4.88;;;12.70;99.90;;;;;;4981507;28;20056;-71
2022/06/06 00:53:38;;;;;;;7.07;5.70;;;12.70;99.90;;;;;;4982825;28;20050;-66
2022/06/06 00:56:31;;;;;;;7.22;5.28;;;12.70;99.90;;;;;;4984285;28;20535;-68
2022/06/06 00:59:03;;;;;;;6.60;4.35;;;12.70;99.90;;;;;;4973736;28;20057;-68
2022/06/06 01:01:33;;;;;;;5.57;4.45;;;12.70;99.90;;;;;;4986428;28;20077;-70
2022/06/06 01:04:03;;;;;;;6.70;5.45;;;12.70;99.90;;;;;;4984249;28;20729;-68
2022/06/06 01:06:33;;;;;;;5.65;5.15;;;12.70;99.90;;;;;;4982112;28;20121;-70
2022/06/06 01:09:01;;;;;;;6.88;4.85;;;12.70;99.90;;;;;;4981776;28;20057;-71
2022/06/06 01:11:29;;;;;;;8.02;4.97;;;12.70;99.90;;;;;;4964140;28;22167;-69
2022/06/06 01:13:56;;;;;;;6.57;4.75;;;12.70;99.90;;;;;;4984648;28;20082;-69
2022/06/06 01:16:35;;;;;;;4.80;3.80;;;12.70;99.90;;;;;;4983820;28;20221;-70
2022/06/06 01:19:13;;;;;;;5.78;4.55;;;12.70;99.90;;;;;;4981771;28;20364;-66
2022/06/06 01:21:48;;;;;;;5.05;4.38;;;12.80;99.90;;;;;;4983863;28;20437;-67
2022/06/06 01:24:48;;;;;;;5.10;4.60;;;12.80;99.90;;;;;;4984584;28;20046;-70
2022/06/06 01:27:37;;;;;;;4.50;3.97;;;12.80;99.90;;;;;;4943125;28;20049;-67
2022/06/06 01:30:08;;;;;;;4.25;3.95;;;12.90;99.90;;;;;;4985783;28;20045;-68
2022/06/06 01:32:43;;;;;;;5.28;4.45;;;12.90;99.90;;;;;;4985747;28;20192;-67
2022/06/06 01:35:20;;;;;;;6.72;4.78;;;12.90;99.90;;;;;;4987856;28;20049;-68
2022/06/06 01:37:47;;;;;;;4.45;3.88;;;12.80;99.90;;;;;;4989237;28;20046;-69
2022/06/06 01:40:16;;;;;;;6.65;4.13;;;12.90;99.90;;;;;;4983335;28;20184;-71
2022/06/06 01:43:02;;;;;;;4.70;4.13;;;12.90;99.90;;;;;;4988414;28;20983;-70
2022/06/06 01:45:42;;;;;;;5.22;4.72;;;12.90;99.90;;;;;;4987372;28;20416;-70
2022/06/06 01:48:14;;;;;;;5.30;4.80;;;12.90;99.90;;;;;;4986878;28;20912;-67
2022/06/06 01:50:43;;;;;;;5.53;3.95;;;13.00;99.90;;;;;;4985241;28;20076;-66
2022/06/06 01:53:15;;;;;;;6.50;4.85;;;13.00;99.90;;;;;;4986186;28;20058;-67
2022/06/06 01:55:44;;;;;;;4.65;3.63;;;13.00;99.90;;;;;;4988509;28;20058;-68
2022/06/06 01:58:17;;;;;;;5.07;4.57;;;12.90;99.90;;;;;;4985436;28;20125;-71
2022/06/06 02:00:44;;;;;;;7.53;5.28;;;12.90;99.90;;;;;;4961656;28;20056;-69
2022/06/06 02:03:11;;;;;;;6.72;4.55;;;12.90;99.90;;;;;;4987551;28;20068;-68
2022/06/06 02:05:39;;;;;;;4.97;4.22;;;12.90;99.90;;;;;;4986980;28;20387;-69
2022/06/06 02:08:07;;;;;;;4.93;4.43;;;12.90;99.90;;;;;;4984193;28;20141;-69
2022/06/06 02:10:35;;;;;;;4.70;4.30;;;12.90;99.90;;;;;;4984276;28;20146;-68
2022/06/06 02:13:02;;;;;;;4.90;4.47;;;12.90;99.90;;;;;;4986431;28;20469;-66
2022/06/06 02:15:30;;;;;;;5.32;4.85;;;12.90;99.90;;;;;;4988507;28;20241;-68
2022/06/06 02:17:57;;;;;;;6.63;4.43;;;12.90;99.90;;;;;;4991073;28;20053;-65
2022/06/06 02:20:27;;;;;;;6.03;4.22;;;12.80;99.90;;;;;;4984583;28;20723;-66
2022/06/06 02:22:54;;;;;;;9.48;5.22;;;12.90;99.90;;;;;;4987173;28;20081;-69
2022/06/06 02:25:22;;;;;;;5.50;4.43;;;12.80;99.90;;;;;;4988371;28;20053;-71
2022/06/06 02:27:51;;;;;;;6.45;5.15;;;12.80;99.90;;;;;;4989729;28;20143;-66
2022/06/06 02:30:22;;;;;;;5.20;4.55;;;12.90;99.90;;;;;;4982958;28;21489;-67
2022/06/06 02:32:49;;;;;;;5.65;4.88;;;12.80;99.90;;;;;;4988478;28;20045;-67
2022/06/06 02:35:19;;;;;;;4.45;4.00;;;12.80;99.90;;;;;;4986438;28;20987;-70
2022/06/06 02:37:47;;;;;;;6.18;5.22;;;12.80;99.90;;;;;;4984561;28;21201;-68
2022/06/06 02:40:17;;;;;;;6.45;5.13;;;12.80;99.90;;;;;;4985050;28;21013;-68
2022/06/06 02:42:45;;;;;;;8.13;4.18;;;12.80;99.90;;;;;;4986529;28;20058;-72
2022/06/06 02:45:15;;;;;;;5.07;4.40;;;12.80;99.90;;;;;;4986885;28;20052;-68
2022/06/06 02:47:50;;;;;;;6.00;4.50;;;12.80;99.90;;;;;;4987989;28;20067;-68
2022/06/06 02:50:19;;;;;;;5.60;4.18;;;12.80;99.90;;;;;;4985626;28;20085;-68
2022/06/06 02:52:46;;;;;;;7.15;5.20;;;12.80;99.90;;;;;;4990090;28;21225;-67
2022/06/06 02:55:14;;;;;;;4.85;3.75;;;12.80;99.90;;;;;;4986382;28;20060;-70
2022/06/06 02:57:46;;;;;;;6.70;4.47;;;12.80;99.90;;;;;;4988786;28;20085;-69
2022/06/06 03:00:19;;;;;;;6.35;3.72;;;12.90;99.90;;;;;;4983426;28;20401;-67
2022/06/06 03:02:46;;;;;;;3.75;3.42;;;12.90;99.90;;;;;;4985396;28;20050;-69
2022/06/06 03:05:14;;;;;;;9.10;5.30;;;12.90;99.90;;;;;;4987190;28;20153;-70
2022/06/06 03:08:13;;;;;;;4.82;4.20;;;12.90;99.90;;;;;;4985060;28;20125;-68
2022/06/06 03:11:06;;;;;;;5.70;4.43;;;12.90;99.90;;;;;;4983172;28;20152;-67
2022/06/06 03:13:56;;;;;;;3.92;3.63;;;12.90;99.90;;;;;;4982613;28;20883;-67
2022/06/06 03:22:59;;;;;;;5.20;4.68;;;12.90;99.90;;;;;;4983947;28;20061;-70
2022/06/06 03:25:38;;;;;;;5.05;3.70;;;12.90;99.90;;;;;;4985066;28;20064;-70
2022/06/06 03:28:19;;;;;;;4.55;4.05;;;12.90;99.90;;;;;;4986267;28;20579;-67
2022/06/06 03:30:55;;;;;;;4.80;4.40;;;12.90;99.90;;;;;;4981469;28;20149;-70
2022/06/06 03:33:52;;;;;;;6.82;4.28;;;13.00;99.90;;;;;;4984438;28;20140;-73
2022/06/06 03:36:44;;;;;;;4.53;4.13;;;13.00;99.90;;;;;;4982622;28;20050;-71
2022/06/06 03:39:19;;;;;;;6.88;4.28;;;13.00;99.90;;;;;;4985351;28;20089;-67
2022/06/06 03:42:11;;;;;;;5.78;4.85;;;13.00;99.90;;;;;;4964558;28;20054;-70
2022/06/06 03:44:43;;;;;;;5.13;4.50;;;13.10;99.90;;;;;;4981399;28;20054;-65
2022/06/06 03:47:34;;;;;;;4.82;4.05;;;13.00;99.90;;;;;;4982476;28;20086;-68
2022/06/06 03:50:26;;;;;;;7.68;4.97;;;13.10;99.90;;;;;;4981332;28;20061;-71
2022/06/06 03:53:05;;;;;;;5.50;3.50;;;13.10;99.90;;;;;;4983580;28;20064;-71
2022/06/06 03:55:41;;;;;;;5.25;4.50;;;13.20;99.90;;;;;;4984932;28;20098;-66
2022/06/06 03:58:14;;;;;;;5.63;3.90;;;13.20;99.90;;;;;;4986030;28;20409;-71
2022/06/06 04:00:42;;;;;;;5.15;4.65;;;13.30;99.90;;;;;;4983993;28;21165;-67
2022/06/06 04:03:11;;;;;;;6.70;4.82;;;13.30;99.90;;;;;;4965201;28;20149;-69
2022/06/06 04:05:38;;;;;;;4.88;4.32;;;13.30;99.90;;;;;;4986157;28;20680;-69
2022/06/06 04:08:08;;;;;;;6.22;5.35;;;13.40;99.90;;;;;;4989755;28;20066;-68
2022/06/06 04:10:56;;;;;;;5.70;5.20;;;13.40;99.90;;;;;;4987735;28;20053;-69
2022/06/06 04:13:36;;;;;;;6.22;4.47;;;13.50;99.90;;;;;;4988541;28;20115;-66
2022/06/06 04:16:09;;;;;;;5.20;4.70;;;13.60;99.90;;;;;;4989058;28;20077;-68
2022/06/06 04:18:58;;;;;;;6.40;4.72;;;13.60;99.90;;;;;;4985320;28;20320;-68
2022/06/06 04:21:37;;;;;;;7.68;4.30;;;13.60;99.90;;;;;;4982746;28;20038;-67
2022/06/06 04:24:30;;;;;;;5.97;5.32;;;13.70;99.90;;;;;;4976664;28;20129;-68
2022/06/06 04:27:22;;;;;;;6.30;5.38;;;13.70;99.90;;;;;;4966006;28;20060;-71
2022/06/06 04:30:01;;;;;;;4.95;4.55;;;13.80;99.90;;;;;;4984036;28;20152;-69
2022/06/06 04:32:59;;;;;;;8.27;5.50;;;13.80;99.90;;;;;;4973160;28;20056;-71
2022/06/06 04:35:44;;;;;;;5.47;4.80;;;13.80;99.90;;;;;;4985791;28;20907;-68
2022/06/06 04:38:14;;;;;;;9.13;5.35;;;13.90;99.90;;;;;;4973831;28;20165;-70
2022/06/06 04:40:49;;;;;;;9.25;4.88;;;14.00;99.90;;;;;;4980841;28;20144;-71
2022/06/06 04:43:28;;;;;;;6.18;4.95;;;14.00;99.90;;;;;;4984067;28;20577;-70
2022/06/06 04:46:30;;;;;;;5.45;4.15;;;14.10;99.90;;;;;;4983354;28;20050;-69
2022/06/06 04:48:59;;;;;;;6.00;4.18;;;14.20;99.90;;;;;;4981222;28;20045;-66
2022/06/06 04:51:26;;;;;;;5.47;4.03;;;14.30;99.90;;;;;;4985925;28;20171;-69
2022/06/06 04:53:56;;;;;;;4.75;4.05;;;14.30;99.90;;;;;;4983056;28;20053;-68
2022/06/06 04:56:24;;;;;;;4.38;3.97;;;14.40;99.90;;;;;;4980506;28;20080;-67
2022/06/06 04:58:55;;;;;;;4.78;4.20;;;14.50;99.90;;;;;;4982009;28;20520;-68
2022/06/06 05:01:24;;;;;;;5.22;4.38;;;14.50;99.90;;;;;;4983121;28;20089;-66
2022/06/06 05:03:53;;;;;;;5.45;4.88;;;14.60;99.90;;;;;;4985221;28;20362;-70
2022/06/06 05:07:06;;;;;;;5.97;5.45;;;14.70;99.90;;;;;;4985130;28;20065;-69
2022/06/06 05:10:12;;;;;;;4.82;4.45;;;14.70;99.90;;;;;;4953211;28;20073;-68
2022/06/06 05:13:10;;;;;;;4.70;4.30;;;14.80;99.90;;;;;;4982278;28;20097;-67
2022/06/06 05:16:03;;;;;;;6.47;4.97;;;14.90;99.90;;;;;;4984345;28;20077;-70
2022/06/06 05:18:30;;;;;;;9.70;5.10;;;14.90;99.90;;;;;;4984952;28;20061;-68
2022/06/06 05:21:20;;;;;;;5.53;4.47;;;15.00;99.90;;;;;;4981956;28;20137;-68
2022/06/06 05:24:13;;;;;;;5.57;4.38;;;15.10;99.90;;;;;;4982124;28;20393;-72
2022/06/06 05:26:50;;;;;;;4.78;4.10;;;15.10;99.90;;;;;;4978155;28;20079;-70
2022/06/06 05:29:51;;;;;;;5.57;4.00;;;15.10;99.90;;;;;;4979053;28;20143;-68
2022/06/06 05:32:28;;;;;;;7.45;4.80;;;15.20;99.90;;;;;;4978961;28;20157;-70
2022/06/06 05:35:24;;;;;;;4.70;4.20;;;15.20;99.90;;;;;;4980833;28;20046;-68
2022/06/06 05:38:18;;;;;;;5.60;5.00;;;15.30;99.90;;;;;;4982746;28;20112;-68
2022/06/06 05:41:19;;;;;;;6.82;5.47;;;15.30;99.90;;;;;;4977666;28;20061;-69
2022/06/06 05:43:52;;;;;;;5.85;4.82;;;15.40;99.90;;;;;;4979784;28;20065;-70
2022/06/06 05:46:53;;;;;;;5.05;4.55;;;15.50;99.90;;;;;;4982108;28;20049;-67
2022/06/06 05:49:28;;;;;;;6.22;4.70;;;15.60;99.90;;;;;;4983117;28;20574;-66
2022/06/06 05:51:58;;;;;;;4.35;3.95;;;15.70;99.90;;;;;;4983118;28;20050;-67
2022/06/06 05:54:43;;;;;;;7.43;5.47;;;15.80;99.90;;;;;;4978943;28;20054;-68
2022/06/06 05:57:26;;;;;;;5.63;4.13;;;15.80;99.90;;;;;;4979298;28;20518;-70
2022/06/06 06:00:17;;;;;;;5.60;5.10;;;15.90;99.90;;;;;;4983832;28;20108;-69
2022/06/06 06:02:44;;;;;;;;;;;15.90;99.90;;;;;;4970860;28;20105;-71
2022/06/06 06:05:19;;;;;;;5.75;4.85;;;16.00;99.90;;;;;;4981195;28;20022;-66
2022/06/06 06:08:19;;;;;;;11.57;4.90;;;16.10;99.90;;;;;;4980589;28;20080;-70
2022/06/06 06:11:19;;;;;;;8.18;5.43;;;16.10;99.90;;;;;;4980997;28;20586;-70
2022/06/06 06:14:01;;;;;;;6.28;5.68;;;16.20;99.90;;;;;;4984175;28;20084;-73
2022/06/06 06:16:32;;;;;;;6.00;5.05;;;16.30;99.90;;;;;;4985065;28;20507;-69
2022/06/06 06:19:07;;;;;;;6.28;4.43;;;16.40;99.90;;;;;;4985491;28;20144;-66
2022/06/06 06:21:41;;;;;;;7.20;4.55;;;16.50;99.90;;;;;;4985259;28;20058;-69
2022/06/06 06:24:11;;;;;;;6.50;5.45;;;16.50;99.90;;;;;;4980127;28;20057;-69
2022/06/06 06:26:39;;;;;;;5.45;4.95;;;16.60;99.90;;;;;;4980827;28;20066;-68
2022/06/06 06:29:09;;;;;;;4.28;3.85;;;16.70;99.90;;;;;;4963124;28;20050;-70
2022/06/06 06:32:02;;;;;;;5.83;4.07;;;16.80;99.90;;;;;;4966344;28;21506;-69
2022/06/06 06:34:35;;;;;;;5.40;4.25;;;16.90;99.90;;;;;;4961711;28;20058;-68
2022/06/06 06:37:26;;;;;;;4.85;4.05;;;17.00;99.90;;;;;;4964085;28;20053;-68
2022/06/06 06:40:10;;;;;;;4.38;3.40;;;17.10;99.90;;;;;;4962088;28;20086;-67
2022/06/06 06:42:56;;;;;;;4.53;3.97;;;17.20;99.90;;;;;;4962814;28;20916;-71
2022/06/06 06:45:25;;;;;;;4.05;3.65;;;17.20;99.90;;;;;;4965333;28;20050;-68
2022/06/06 06:47:58;;;;;;;7.03;3.85;;;17.30;99.90;;;;;;4963150;28;20190;-67
2022/06/06 06:50:46;;;;;;;3.83;3.45;;;17.30;99.90;;;;;;4963566;28;20050;-66
2022/06/06 06:53:13;;;;;;;4.95;3.63;;;17.30;99.90;;;;;;4963424;28;20047;-69
2022/06/06 06:55:57;;;;;;;3.65;3.28;;;17.40;99.90;;;;;;4963034;28;20171;-69
2022/06/06 06:58:43;;;;;;;3.83;3.35;;;17.50;99.90;;;;;;4962042;28;21457;-67
2022/06/06 07:01:17;;;;;;;4.95;3.30;;;17.60;99.90;;;;;;4962419;28;20193;-67
2022/06/06 07:10:13;;;;;;;3.92;3.53;;;17.90;99.90;;;;;;4939395;28;20055;-72
2022/06/06 07:12:43;;;;;;;4.53;3.63;;;18.00;99.90;;;;;;4937889;28;20254;-70
2022/06/06 07:15:10;;;;;;;4.65;3.85;;;18.10;99.90;;;;;;4962476;28;20166;-70
2022/06/06 07:17:45;;;;;;;4.50;3.80;;;18.10;99.90;;;;;;4960927;28;20070;-69
2022/06/06 07:20:15;;;;;;;4.82;3.03;;;18.20;99.90;;;;;;4962383;28;20149;-69
2022/06/06 07:22:59;;;;;;;5.25;3.90;;;18.30;99.90;;;;;;4960735;28;21427;-67
2022/06/06 07:25:27;;;;;;;5.20;4.60;;;18.40;99.90;;;;;;4963352;28;20050;-70
2022/06/06 07:27:54;;;;;;;4.82;3.08;;;18.40;99.90;;;;;;4973717;28;21558;-70
2022/06/06 07:30:22;;;;;;;5.18;4.05;;;18.50;99.90;;;;;;4958657;28;21053;-67
2022/06/06 07:32:49;;;;;;;4.55;3.42;;;18.60;99.90;;;;;;4978758;28;20111;-68
2022/06/06 07:35:34;;;;;;;4.60;3.35;;;18.70;99.90;;;;;;4981084;28;20076;-68
2022/06/06 07:38:27;;;;;;;3.35;3.08;;;18.70;99.90;;;;;;4978651;28;20043;-67
2022/06/06 07:41:26;;;;;;;6.75;3.00;;;18.80;99.90;;;;;;4978517;28;20181;-67
2022/06/06 07:43:53;;;;;;;3.00;2.67;;;18.80;99.90;;;;;;4979857;28;20113;-69
2022/06/06 07:46:56;;;;;;;4.07;2.95;;;18.90;99.90;;;;;;4977417;28;21805;-70
2022/06/06 07:49:40;;;;;;;2.80;2.60;;;19.00;99.90;;;;;;4978341;28;20176;-69
2022/06/06 07:52:26;;;;;;;3.13;2.78;;;19.10;99.90;;;;;;4982577;28;20820;-72
2022/06/06 07:54:59;;;;;;;3.85;3.22;;;19.20;99.90;;;;;;4980506;28;20060;-69
2022/06/06 07:57:51;;;;;;;2.90;2.65;;;19.20;99.90;;;;;;4960583;28;20050;-72
2022/06/06 08:00:25;;;;;;;3.67;2.85;;;19.40;99.90;;;;;;4977580;28;20077;-71
2022/06/06 08:03:10;;;;;;;3.13;2.70;;;19.40;99.90;;;;;;4983497;28;20065;-71
2022/06/06 08:05:39;;;;;;;2.78;2.58;;;19.50;99.90;;;;;;4975261;28;20049;-71
2022/06/06 08:08:35;;;;;;;2.22;2.03;;;19.60;99.90;;;;;;4976470;28;20156;-70
2022/06/06 08:11:29;;;;;;;2.95;2.75;;;19.60;99.90;;;;;;4979993;28;20057;-68
2022/06/06 08:14:02;;;;;;;3.17;2.33;;;19.70;99.90;;;;;;4980552;28;20140;-70
2022/06/06 08:16:40;;;;;;;3.00;2.80;;;19.70;99.90;;;;;;4977924;28;20786;-69
2022/06/06 08:19:25;;;;;;;4.90;2.50;;;19.80;99.90;;;;;;4982633;28;20249;-72
2022/06/06 08:21:52;;;;;;;4.05;3.63;;;19.90;99.90;;;;;;4982886;28;20139;-70
2022/06/06 08:24:27;;;;;;;2.80;2.47;;;19.80;99.90;;;;;;4979433;28;20160;-69
2022/06/06 08:27:16;;;;;;;3.15;2.83;;;19.80;99.90;;;;;;4981170;28;20159;-69
2022/06/06 08:29:45;;;;;;;3.78;2.78;;;19.90;99.90;;;;;;4981302;28;20700;-68
2022/06/06 08:32:13;;;;;;;4.03;2.15;;;19.90;99.90;;;;;;4983315;28;20532;-70
2022/06/06 08:34:41;;;;;;;3.38;2.95;;;19.90;99.90;;;;;;4978603;28;20158;-71
2022/06/06 08:37:08;;;;;;;3.35;3.05;;;20.00;99.90;;;;;;4976683;28;20611;-70
2022/06/06 08:40:13;;;;;;;2.78;2.58;;;20.10;99.90;;;;;;4978740;28;20712;-69
2022/06/06 08:42:43;;;;;;;3.88;2.72;;;20.30;99.90;;;;;;4980540;28;20065;-70
2022/06/06 08:45:13;;;;;;;3.78;3.35;;;20.40;99.90;;;;;;4981402;28;20586;-70
2022/06/06 08:48:09;;;;;;;4.00;2.58;;;20.70;99.90;;;;;;4982595;28;20049;-70
2022/06/06 08:51:01;;;;;;;3.42;2.55;;;20.80;99.90;;;;;;4951338;28;20420;-71
2022/06/06 08:53:55;;;;;;;2.17;1.98;;;20.80;99.90;;;;;;4979017;28;20502;-72
2022/06/06 08:56:49;;;;;;;3.78;2.58;;;20.90;99.90;;;;;;4974288;28;21124;-72
2022/06/06 08:59:45;;;;;;;3.20;2.15;;;21.10;99.90;;;;;;4994776;28;20054;-73
2022/06/06 09:02:39;;;;;;;2.13;1.92;;;21.20;99.90;;;;;;4990018;28;20041;-71
2022/06/06 09:06:04;;;;;;;4.10;2.17;;;21.30;99.90;;;;;;4986764;28;20161;-70
2022/06/06 09:08:42;;;;;;;2.75;2.55;;;21.40;99.90;;;;;;4915096;28;20152;-72
2022/06/06 09:11:28;;;;;;;3.10;2.17;;;21.30;99.90;;;;;;4920370;28;20051;-73
2022/06/06 09:14:34;;;;;;;2.72;2.50;;;21.40;99.90;;;;;;4959930;28;20864;-69
2022/06/06 09:17:25;;;;;;;2.50;2.30;;;21.40;99.90;;;;;;4977464;28;20045;-72
2022/06/06 09:20:40;;;;;;;5.20;2.65;;;21.40;99.90;;;;;;4984120;28;20617;-72
2022/06/06 09:23:44;;;;;;;2.75;2.03;;;21.40;99.90;;;;;;4984843;28;20050;-68
2022/06/06 09:26:30;;;;;;;2.88;2.28;;;21.60;99.90;;;;;;4987319;28;20056;-70
2022/06/06 09:28:56;;;;;;;1.80;1.70;;;21.60;99.90;;;;;;4975766;28;20058;-72
2022/06/06 09:31:54;;;;;;;1.90;1.77;;;21.70;99.90;;;;;;4976649;28;20062;-69
2022/06/06 09:34:48;;;;;;;3.03;1.55;;;21.70;99.90;;;;;;4978563;28;20129;-68
2022/06/06 09:37:21;;;;;;;2.92;1.92;;;21.80;99.90;;;;;;4977394;28;20567;-72
2022/06/06 09:40:21;;;;;;;2.03;1.90;;;21.80;99.90;;;;;;4975340;28;20149;-71
2022/06/06 09:43:08;;;;;;;2.05;1.55;;;21.80;99.80;;;;;;4974583;28;20219;-73
2022/06/06 09:46:24;;;;;;;2.45;2.08;;;22.00;99.20;;;;;;4968345;28;20042;-73
2022/06/06 09:49:09;;;;;;;3.13;1.92;;;22.00;98.40;;;;;;4983230;28;20049;-68
2022/06/06 09:51:55;;;;;;;2.13;1.92;;;22.10;99.40;;;;;;4981994;28;20077;-72
2022/06/06 09:59:01;;;;;;;3.55;1.70;;;22.30;99.10;;;;;;4982210;28;20050;-69
2022/06/06 10:01:13;;;;;;;1.85;1.50;;;22.20;98.00;;;;;;4964433;28;20057;-68
2022/06/06 10:03:58;;;;;;;2.28;2.08;;;22.30;99.80;;;;;;4983196;28;20072;-72
2022/06/06 10:06:34;;;;;;;1.55;1.38;;;22.20;99.70;;;;;;4982461;28;20057;-72
2022/06/06 10:09:27;;;;;;;2.30;1.42;;;22.30;98.30;;;;;;4982557;28;21179;-71
2022/06/06 10:12:27;;;;;;;1.48;1.38;;;22.40;99.60;;;;;;4982854;28;20053;-70
2022/06/06 10:15:05;;;;;;;2.28;1.98;;;22.50;99.20;;;;;;4964127;28;20071;-68
2022/06/06 10:17:38;;;;;;;1.92;1.83;;;22.60;99.40;;;;;;4967808;28;20058;-70
2022/06/06 10:20:32;;;;;;;1.98;1.77;;;22.80;98.60;;;;;;4981459;28;20068;-67
2022/06/06 10:23:10;;;;;;;4.18;1.70;;;22.80;98.00;;;;;;4982267;28;20045;-73
2022/06/06 10:25:53;;;;;;;1.95;1.33;;;22.90;96.70;;;;;;4986057;28;20068;-70
2022/06/06 10:28:29;;;;;;;2.08;1.90;;;22.90;98.10;;;;;;4978055;28;20287;-74
2022/06/06 10:31:33;;;;;;;2.70;2.42;;;22.90;97.60;;;;;;4981840;28;20072;-72
2022/06/06 10:34:58;;;;;;;1.80;1.70;;;22.80;96.90;;;;;;4985127;28;20069;-75
2022/06/06 10:37:39;;;;;;;1.63;1.52;;;22.80;97.70;;;;;;4931516;28;20232;-68
2022/06/06 10:40:44;;;;;;;;;;;22.80;97.40;;;;;;4981910;28;20137;-69
2022/06/06 10:43:38;;;;;;;4.82;1.95;;;22.90;97.10;;;;;;4881476;29;20506;-73
2022/06/06 10:46:30;;;;;;;1.70;1.60;;;23.00;97.40;;;;;;4882954;29;20158;-69
2022/06/06 10:49:17;;;;;;;1.58;1.45;;;23.10;97.00;;;;;;4964622;28;20486;-68
2022/06/06 10:52:23;;;;;;;2.28;2.08;;;23.00;97.20;;;;;;4982338;28;21246;-70
2022/06/06 10:55:15;;;;;;;1.50;1.40;;;23.10;97.10;;;;;;4979038;28;20053;-72
2022/06/06 10:58:00;;;;;;;2.10;1.58;;;23.10;97.30;;;;;;4980821;28;20165;-71
2022/06/06 11:00:46;;;;;;;3.50;1.85;;;23.10;97.70;;;;;;4980269;28;20493;-71
2022/06/06 11:03:50;;;;;;;1.60;1.50;;;23.00;95.90;;;;;;4979449;28;21153;-68
2022/06/06 11:06:41;;;;;;;2.28;2.08;;;23.10;96.70;;;;;;4977154;28;20054;-74
2022/06/06 11:09:14;;;;;;;3.75;1.70;;;23.20;96.00;;;;;;4982442;28;20050;-73
2022/06/06 11:11:41;;;;;;;1.95;1.73;;;23.10;96.50;;;;;;4982655;28;20073;-72
2022/06/06 11:14:37;;;;;;;1.70;1.60;;;23.00;95.60;;;;;;4983580;28;20125;-72
2022/06/06 11:17:19;;;;;;;2.45;1.77;;;23.10;95.90;;;;;;4977700;28;20089;-69
2022/06/06 11:19:46;;;;;;;3.85;2.45;;;23.00;96.20;;;;;;4982638;28;20212;-71
2022/06/06 11:22:43;;;;;;;3.38;2.05;;;23.00;96.60;;;;;;4989606;28;20042;-71
2022/06/06 11:25:21;;;;;;;2.33;1.77;;;23.00;96.80;;;;;;4981342;28;20129;-72
2022/06/06 11:28:25;;;;;;;2.75;1.70;;;22.90;97.20;;;;;;4983240;28;20064;-73
2022/06/06 11:31:16;;;;;;;1.70;1.50;;;23.00;97.70;;;;;;4979868;28;20064;-70
2022/06/06 11:34:32;;;;;;;1.25;1.15;;;23.00;95.40;;;;;;4977729;28;20054;-68
2022/06/06 11:37:50;;;;;;;3.15;1.88;;;23.00;95.70;;;;;;4978313;28;20046;-67
2022/06/06 11:40:51;;;;;;;1.65;1.55;;;23.20;95.70;;;;;;4956293;28;20073;-73
2022/06/06 11:43:28;;;;;;;2.28;2.08;;;23.20;96.80;;;;;;4975085;28;20124;-70
2022/06/06 11:46:26;;;;;;;1.85;1.75;;;23.10;95.30;;;;;;4980828;28;21124;-67
2022/06/06 11:49:24;;;;;;;2.78;2.53;;;23.20;96.00;;;;;;4975002;28;20073;-71
2022/06/06 11:52:29;;;;;;;1.80;1.67;;;23.20;96.20;;;;;;4974115;28;20050;-76
2022/06/06 11:55:09;;;;;;;1.58;1.48;;;23.30;96.20;;;;;;4976832;28;20077;-72
2022/06/06 11:57:53;;;;;;;3.53;1.48;;;23.10;96.30;;;;;;4968945;28;21524;-67
2022/06/06 12:00:41;;;;;;;2.20;1.48;;;23.00;95.50;;;;;;4977081;28;20557;-69
2022/06/06 12:03:45;;;;;;;2.45;1.65;;;23.00;95.70;;;;;;4975901;28;20117;-70
2022/06/06 12:06:47;;;;;;;1.50;1.40;;;23.00;95.50;;;;;;4962246;28;20085;-69
2022/06/06 12:09:43;;;;;;;1.58;1.48;;;23.00;94.70;;;;;;4974025;28;20657;-73
2022/06/06 12:12:19;;;;;;;1.58;1.30;;;23.00;95.60;;;;;;4981901;28;20494;-72
2022/06/06 12:15:11;;;;;;;2.28;2.08;;;23.00;94.80;;;;;;4974683;28;20137;-73
2022/06/06 12:17:46;;;;;;;1.30;1.20;;;22.60;94.70;;;;;;4978586;28;20058;-74
2022/06/06 12:20:19;;;;;;;1.08;1.00;;;22.70;94.00;;;;;;4975107;28;20168;-66
2022/06/06 12:23:00;;;;;;;1.58;1.48;;;22.50;94.70;;;;;;4977672;28;20069;-74
2022/06/06 12:25:53;;;;;;;2.88;1.33;;;22.40;94.20;;;;;;4981515;28;20145;-72
2022/06/06 12:28:44;;;;;;;1.65;1.50;;;22.50;94.60;;;;;;4966539;28;20058;-70
2022/06/06 12:31:32;;;;;;;1.27;1.13;;;22.50;94.90;;;;;;4959612;28;20385;-72
2022/06/06 12:34:12;;;;;;;1.67;1.40;;;22.70;94.60;;;;;;4966242;28;20050;-71
2022/06/06 12:36:45;;;;;;;1.45;1.35;;;23.00;94.40;;;;;;4959324;28;20042;-78
2022/06/06 12:39:23;;;;;;;2.13;1.50;;;23.20;94.50;;;;;;4962006;28;20074;-75
2022/06/06 12:41:57;;;;;;;1.40;1.27;;;23.20;94.00;;;;;;4963750;28;20053;-73
2022/06/06 12:44:39;;;;;;;1.50;1.40;;;23.20;94.40;;;;;;4962677;28;20086;-73
2022/06/06 12:47:19;;;;;;;2.45;1.70;;;23.20;94.40;;;;;;4966535;28;20137;-76
2022/06/06 12:49:59;;;;;;;2.15;1.77;;;23.00;94.60;;;;;;4966389;28;20190;-70
2022/06/06 12:52:47;;;;;;;1.48;1.38;;;23.20;94.50;;;;;;4956380;28;20050;-77
2022/06/06 12:55:30;;;;;;;1.33;1.23;;;23.10;94.40;;;;;;4962528;28;20121;-73
2022/06/06 12:58:23;;;;;;;1.50;1.40;;;23.00;95.10;;;;;;4958867;28;20054;-69
2022/06/06 13:04:30;;;;;;;4.93;1.52;;;23.10;95.40;;;;;;4963925;28;20061;-72
2022/06/06 13:07:15;;;;;;;2.28;1.38;;;22.80;94.30;;;;;;4956871;28;20054;-70
2022/06/06 13:10:06;;;;;;;2.40;1.75;;;22.70;95.20;;;;;;4961751;28;20449;-71
2022/06/06 13:12:54;;;;;;;1.67;1.58;;;22.60;95.80;;;;;;4959687;28;20053;-72
2022/06/06 13:15:29;;;;;;;2.08;1.90;;;22.50;95.70;;;;;;4940144;28;20169;-70
2022/06/06 13:18:19;;;;;;;2.42;2.22;;;22.70;95.90;;;;;;4961007;28;20060;-71
2022/06/06 13:20:56;;;;;;;1.65;1.55;;;22.70;96.30;;;;;;4921578;28;20148;-73
2022/06/06 13:23:50;;;;;;;1.60;1.50;;;22.40;96.30;;;;;;4964968;28;20078;-74
2022/06/06 13:26:39;;;;;;;2.45;1.58;;;22.30;97.00;;;;;;4958028;28;20178;-72
2022/06/06 13:29:06;;;;;;;1.70;1.60;;;22.30;97.10;;;;;;4979099;28;20062;-71
2022/06/06 13:31:37;;;;;;;2.53;2.03;;;22.30;97.00;;;;;;4974537;28;20172;-71
2022/06/06 13:34:27;;;;;;;2.72;2.05;;;22.10;96.90;;;;;;4983690;28;20093;-75
2022/06/06 13:37:00;;;;;;;3.28;2.85;;;22.10;97.80;;;;;;4951256;28;20080;-71
2022/06/06 13:39:33;;;;;;;4.22;2.47;;;22.10;98.50;;;;;;4982405;28;20168;-70
2022/06/06 13:42:19;;;;;;;2.13;1.88;;;22.00;98.00;;;;;;4981582;28;20953;-71
2022/06/06 13:44:52;;;;;;;2.45;2.20;;;21.90;97.90;;;;;;4980455;28;20173;-68
2022/06/06 13:47:41;;;;;;;2.45;2.22;;;21.90;98.40;;;;;;4984269;28;20089;-70
2022/06/06 13:50:17;;;;;;;2.65;2.20;;;21.90;98.80;;;;;;4981278;28;20054;-70
2022/06/06 13:53:12;;;;;;;2.08;1.70;;;21.80;98.90;;;;;;4981696;28;20403;-73
2022/06/06 13:55:40;;;;;;;2.33;2.05;;;21.70;98.90;;;;;;4983177;28;20287;-71
2022/06/06 13:58:16;;;;;;;3.28;2.20;;;21.70;99.10;;;;;;4966109;28;20053;-75
2022/06/06 14:01:13;;;;;;;2.45;2.25;;;21.60;98.50;;;;;;4984254;28;20069;-72
2022/06/06 14:03:54;;;;;;;2.30;2.10;;;21.40;98.70;;;;;;4984226;28;20058;-71
2022/06/06 14:06:34;;;;;;;1.80;1.67;;;21.40;98.60;;;;;;4981226;28;20199;-70
2022/06/06 14:09:02;;;;;;;1.55;1.40;;;21.40;98.80;;;;;;4987111;28;20128;-73
2022/06/06 14:11:47;;;;;;;2.50;2.30;;;21.30;98.70;;;;;;4976252;28;20286;-73
2022/06/06 14:14:18;;;;;;;4.20;2.35;;;21.20;98.50;;;;;;4983272;28;20111;-75
2022/06/06 14:17:08;;;;;;;3.15;2.30;;;21.10;99.00;;;;;;4987009;28;20811;-68
2022/06/06 14:19:48;;;;;;;2.67;2.47;;;21.00;99.80;;;;;;4985967;28;20129;-71
2022/06/06 14:22:29;;;;;;;3.00;2.75;;;20.90;99.90;;;;;;4987571;28;20079;-71